Time;durP1;ratioP1;P1;durP2;ratioP2;P2;SDS_P1;SDS_P2;PMS_P1;PMS_P2;Temp;Humidity;BMP_temperature;BMP_pressure;BME280_temperature;BME280_humidity;BME280_pressure;Samples;Min_cycle;Max_cycle;Signal;HPM_P1;HPM_P2
2022/05/31 04:31:33;;;;;;;9.17;4.30;;;11.90;99.90;;;;;;5420026;23;20524;-73
2022/05/31 04:33:59;;;;;;;5.53;4.40;;;12.00;99.90;;;;;;4954541;29;20434;-72
2022/05/31 04:36:25;;;;;;;7.43;4.63;;;12.00;99.90;;;;;;4953359;29;20308;-72
2022/05/31 04:38:51;;;;;;;5.93;4.10;;;11.90;99.90;;;;;;4953553;29;20265;-81
2022/05/31 04:41:26;;;;;;;4.70;4.20;;;12.00;99.90;;;;;;4957646;28;20565;-72
2022/05/31 04:43:52;;;;;;;10.60;3.90;;;12.00;99.90;;;;;;4953610;28;20679;-71
2022/05/31 04:46:21;;;;;;;8.83;4.20;;;12.00;99.90;;;;;;4946238;28;20437;-71
2022/05/31 04:48:47;;;;;;;10.53;5.17;;;12.00;99.90;;;;;;4947738;28;20522;-72
2022/05/31 04:51:13;;;;;;;6.03;4.67;;;12.10;99.90;;;;;;4946482;28;20453;-71
2022/05/31 04:53:40;;;;;;;5.83;4.60;;;12.10;99.90;;;;;;4966471;28;20212;-70
2022/05/31 04:56:10;;;;;;;5.40;4.20;;;12.20;99.90;;;;;;4976311;28;20526;-70
2022/05/31 04:58:36;;;;;;;6.30;4.80;;;12.20;99.90;;;;;;4976019;28;20488;-70
2022/05/31 05:01:01;;;;;;;8.07;4.67;;;12.20;99.90;;;;;;4976163;28;20519;-71
2022/05/31 05:03:30;;;;;;;14.70;5.50;;;12.20;99.90;;;;;;4956581;28;20184;-71
2022/05/31 05:06:03;;;;;;;8.20;5.43;;;12.30;99.90;;;;;;4955688;29;20648;-71
2022/05/31 05:08:30;;;;;;;12.57;5.77;;;12.30;99.90;;;;;;4956465;29;20434;-72
2022/05/31 05:10:56;;;;;;;10.67;5.70;;;12.30;99.90;;;;;;4967773;28;20782;-72
2022/05/31 05:13:21;;;;;;;8.53;5.00;;;12.30;99.90;;;;;;4975259;28;20429;-71
2022/05/31 05:15:47;;;;;;;8.47;5.27;;;12.30;99.90;;;;;;4975236;28;20192;-72
2022/05/31 05:18:13;;;;;;;9.10;5.20;;;12.40;99.90;;;;;;4975570;28;20186;-71
2022/05/31 05:20:39;;;;;;;11.33;5.23;;;12.40;99.90;;;;;;4969184;28;20238;-71
2022/05/31 05:23:06;;;;;;;6.00;5.40;;;12.40;99.90;;;;;;4965564;28;20182;-71
2022/05/31 05:25:32;;;;;;;9.97;5.43;;;12.40;99.90;;;;;;4964300;28;20428;-72
2022/05/31 05:27:58;;;;;;;8.00;6.33;;;12.50;99.90;;;;;;4964376;28;20429;-70
2022/05/31 05:30:39;;;;;;;17.33;6.13;;;12.50;99.90;;;;;;4965179;28;20488;-71
2022/05/31 05:33:06;;;;;;;8.27;4.93;;;12.50;99.90;;;;;;4962867;28;20438;-70
2022/05/31 05:35:31;;;;;;;9.07;5.57;;;12.50;99.90;;;;;;4964705;28;20437;-70
2022/05/31 05:37:58;;;;;;;10.87;5.90;;;12.50;99.90;;;;;;4958033;28;20817;-70
2022/05/31 05:40:23;;;;;;;11.00;6.40;;;12.50;99.90;;;;;;4958275;28;20182;-70
2022/05/31 05:42:49;;;;;;;12.70;7.20;;;12.50;99.90;;;;;;4975280;28;20444;-70
2022/05/31 05:45:15;;;;;;;13.47;5.10;;;12.50;99.90;;;;;;4975103;28;20178;-70
2022/05/31 05:47:40;;;;;;;13.73;5.70;;;12.50;99.90;;;;;;4974065;28;20189;-70
2022/05/31 05:50:07;;;;;;;9.07;5.00;;;12.50;99.90;;;;;;4974807;28;20254;-70
2022/05/31 05:52:33;;;;;;;11.50;5.93;;;12.50;99.90;;;;;;4975645;28;20182;-70
2022/05/31 05:54:58;;;;;;;9.53;5.60;;;12.50;99.90;;;;;;4975578;28;20416;-70
2022/05/31 05:57:24;;;;;;;7.97;5.97;;;12.50;99.90;;;;;;4975280;28;20832;-70
2022/05/31 05:59:50;;;;;;;8.03;5.93;;;12.60;99.90;;;;;;4975915;28;20546;-70
2022/05/31 06:02:22;;;;;;;12.17;6.77;;;12.60;99.90;;;;;;4967675;28;20539;-70
2022/05/31 06:04:58;;;;;;;7.03;5.23;;;12.60;99.90;;;;;;4963899;28;20177;-70
2022/05/31 06:07:30;;;;;;;10.43;6.03;;;12.60;99.90;;;;;;4967904;28;20425;-70
2022/05/31 06:10:03;;;;;;;6.50;5.10;;;12.60;99.90;;;;;;4963831;28;20456;-69
2022/05/31 06:12:35;;;;;;;9.03;5.00;;;12.70;99.90;;;;;;4962790;28;20440;-70
2022/05/31 06:15:07;;;;;;;7.00;6.07;;;12.70;99.90;;;;;;4962990;28;20434;-69
2022/05/31 06:17:37;;;;;;;15.23;6.63;;;12.70;99.90;;;;;;4964506;28;20505;-69
2022/05/31 06:20:06;;;;;;;8.07;6.53;;;12.70;99.90;;;;;;4961000;28;20437;-70
2022/05/31 06:22:32;;;;;;;5.63;5.10;;;12.80;99.90;;;;;;4964003;28;20459;-69
2022/05/31 06:24:58;;;;;;;7.90;5.93;;;12.80;99.90;;;;;;4965248;28;20429;-69
2022/05/31 06:27:24;;;;;;;9.10;6.20;;;12.80;99.90;;;;;;4963232;28;20185;-70
2022/05/31 06:29:50;;;;;;;12.80;7.70;;;12.80;99.90;;;;;;4963288;28;20783;-70
2022/05/31 06:32:16;;;;;;;6.63;5.97;;;12.80;99.90;;;;;;4963999;28;20932;-70
2022/05/31 06:34:42;;;;;;;11.30;7.20;;;12.70;99.90;;;;;;4963525;28;20175;-70
2022/05/31 06:37:11;;;;;;;10.93;7.33;;;12.70;99.90;;;;;;4964701;28;20468;-70
2022/05/31 06:39:38;;;;;;;10.13;6.87;;;12.80;99.90;;;;;;4965306;28;20518;-69
2022/05/31 06:42:05;;;;;;;12.43;6.87;;;12.80;99.90;;;;;;4961128;28;20807;-69
2022/05/31 06:44:35;;;;;;;10.80;6.50;;;12.70;99.90;;;;;;4962827;28;20862;-69
2022/05/31 06:47:01;;;;;;;12.77;6.33;;;12.70;99.90;;;;;;4965133;28;20444;-69
2022/05/31 06:49:29;;;;;;;9.20;6.50;;;12.80;99.90;;;;;;4963921;28;20543;-70
2022/05/31 06:57:22;;;;;;;10.43;6.50;;;12.80;99.90;;;;;;4965179;28;20920;-72
2022/05/31 06:59:48;;;;;;;8.27;6.70;;;12.90;99.90;;;;;;4962203;28;20517;-71
2022/05/31 07:02:13;;;;;;;8.20;6.67;;;12.90;99.90;;;;;;4963571;28;20542;-73
2022/05/31 07:04:39;;;;;;;10.90;7.80;;;12.90;99.90;;;;;;4964909;28;20182;-73
2022/05/31 07:07:05;;;;;;;11.40;7.00;;;12.90;99.90;;;;;;4961586;28;20202;-72
2022/05/31 07:09:32;;;;;;;8.03;6.60;;;12.90;99.90;;;;;;4953357;28;20273;-73
2022/05/31 07:11:58;;;;;;;10.27;7.13;;;12.90;99.90;;;;;;4964465;28;20181;-71
2022/05/31 07:14:24;;;;;;;6.87;6.13;;;12.90;99.90;;;;;;4961868;28;20485;-71
2022/05/31 07:16:50;;;;;;;14.70;6.70;;;13.00;99.90;;;;;;4962881;28;20307;-73
2022/05/31 07:19:16;;;;;;;9.50;5.87;;;13.10;99.90;;;;;;4961571;28;20525;-72
2022/05/31 07:21:42;;;;;;;9.50;6.70;;;13.00;99.90;;;;;;4963502;28;20181;-73
2022/05/31 07:24:08;;;;;;;12.03;8.07;;;13.00;99.90;;;;;;4969173;28;20430;-73
2022/05/31 07:26:33;;;;;;;8.37;6.30;;;13.10;99.90;;;;;;4960267;28;20964;-72
2022/05/31 07:28:59;;;;;;;9.13;7.17;;;13.10;99.90;;;;;;4954334;29;20201;-72
2022/05/31 07:31:26;;;;;;;10.30;7.80;;;13.10;99.90;;;;;;4954230;29;20233;-72
2022/05/31 07:33:52;;;;;;;17.13;7.10;;;13.10;99.90;;;;;;4954316;29;20187;-72
2022/05/31 07:36:19;;;;;;;11.20;6.57;;;13.10;99.90;;;;;;4954091;29;20469;-72
2022/05/31 07:38:45;;;;;;;9.97;7.43;;;13.00;99.90;;;;;;4954262;29;20191;-72
2022/05/31 07:41:11;;;;;;;12.20;6.33;;;13.00;99.90;;;;;;4964209;28;20508;-72
2022/05/31 07:43:37;;;;;;;9.20;6.60;;;13.00;99.90;;;;;;4963719;28;20537;-72
2022/05/31 07:46:06;;;;;;;9.40;6.10;;;13.00;99.90;;;;;;4962605;28;20190;-72
2022/05/31 07:48:35;;;;;;;12.77;5.57;;;13.00;99.90;;;;;;4963786;28;20661;-71
2022/05/31 07:51:01;;;;;;;12.57;7.60;;;13.10;99.90;;;;;;4963690;28;20931;-72
2022/05/31 07:53:27;;;;;;;9.13;7.17;;;13.10;99.90;;;;;;4964628;28;20421;-72
2022/05/31 07:55:57;;;;;;;13.57;6.80;;;13.10;99.90;;;;;;4962343;28;20193;-72
2022/05/31 07:58:32;;;;;;;9.77;6.50;;;13.20;99.90;;;;;;4960140;28;20194;-72
2022/05/31 08:01:03;;;;;;;10.30;6.83;;;13.20;99.90;;;;;;4963510;28;20429;-72
2022/05/31 08:03:30;;;;;;;7.77;5.77;;;13.20;99.90;;;;;;4962711;28;20930;-72
2022/05/31 08:05:55;;;;;;;14.83;6.73;;;13.20;99.90;;;;;;4963597;28;20435;-73
2022/05/31 08:08:21;;;;;;;14.10;6.77;;;13.30;99.90;;;;;;4963160;28;20532;-73
2022/05/31 08:10:47;;;;;;;10.50;6.87;;;13.30;99.90;;;;;;4962318;28;20189;-69
2022/05/31 08:13:12;;;;;;;10.17;6.50;;;13.40;99.90;;;;;;4963853;28;20186;-69
2022/05/31 08:15:38;;;;;;;9.70;6.60;;;13.40;99.90;;;;;;4962788;28;20183;-70
2022/05/31 08:18:04;;;;;;;9.70;6.80;;;13.40;99.90;;;;;;4962516;28;20217;-70
2022/05/31 08:20:30;;;;;;;11.20;6.30;;;13.40;99.90;;;;;;4964163;28;20429;-70
2022/05/31 08:22:56;;;;;;;8.93;6.30;;;13.40;99.90;;;;;;4962451;28;20448;-70
2022/05/31 08:25:22;;;;;;;11.83;6.97;;;13.40;99.90;;;;;;4964416;28;20236;-70
2022/05/31 08:27:47;;;;;;;9.43;7.23;;;13.40;99.90;;;;;;4967873;28;20249;-70
2022/05/31 08:30:14;;;;;;;16.00;8.03;;;13.40;99.90;;;;;;4963468;28;20473;-69
2022/05/31 08:32:39;;;;;;;13.80;6.30;;;13.30;99.90;;;;;;4967136;28;20288;-70
2022/05/31 08:35:06;;;;;;;12.17;7.60;;;13.40;99.90;;;;;;4966873;28;20529;-70
2022/05/31 08:37:32;;;;;;;10.20;7.63;;;13.20;99.90;;;;;;4967582;28;20224;-71
2022/05/31 08:39:58;;;;;;;11.27;6.57;;;13.20;99.90;;;;;;4966280;28;20430;-71
2022/05/31 08:43:13;;;;;;;9.60;8.13;;;13.20;99.90;;;;;;4966171;28;20642;-72
2022/05/31 08:45:55;;;;;;;12.60;7.17;;;13.20;99.90;;;;;;4904304;29;20445;-72
2022/05/31 08:48:45;;;;;;;10.63;6.30;;;13.20;99.90;;;;;;4905510;29;20440;-70
2022/05/31 08:57:10;;;;;;;7.43;6.17;;;13.30;99.90;;;;;;4965415;28;20840;-70
2022/05/31 09:00:05;;;;;;;12.37;7.80;;;13.40;99.90;;;;;;4963516;28;20513;-71
2022/05/31 09:02:38;;;;;;;8.80;6.50;;;13.40;99.90;;;;;;4964804;28;21018;-71
2022/05/31 09:05:09;;;;;;;6.77;5.13;;;13.50;99.90;;;;;;4966436;28;20422;-71
2022/05/31 09:07:42;;;;;;;8.53;5.90;;;13.50;99.90;;;;;;4962983;28;20434;-71
2022/05/31 09:10:26;;;;;;;13.13;6.80;;;13.60;99.90;;;;;;4957555;28;20509;-70
2022/05/31 09:13:15;;;;;;;6.53;5.40;;;13.80;99.90;;;;;;4964457;28;20895;-72
2022/05/31 09:15:59;;;;;;;10.77;5.50;;;13.80;99.90;;;;;;4965501;28;20434;-72
2022/05/31 09:18:51;;;;;;;8.20;4.77;;;13.90;99.90;;;;;;4966511;28;20437;-71
2022/05/31 09:21:34;;;;;;;10.83;4.93;;;14.00;99.90;;;;;;4966159;28;20437;-76
2022/05/31 09:24:00;;;;;;;7.07;5.07;;;14.00;99.90;;;;;;4957980;28;20438;-70
2022/05/31 09:26:28;;;;;;;8.30;5.03;;;14.00;99.90;;;;;;4956529;29;20493;-70
2022/05/31 09:29:10;;;;;;;9.53;4.80;;;14.10;99.90;;;;;;4956486;29;20198;-70
2022/05/31 09:32:14;;;;;;;9.17;5.90;;;14.00;99.90;;;;;;4956331;29;20481;-70
2022/05/31 09:35:20;;;;;;;7.33;5.47;;;14.10;99.90;;;;;;4956472;29;20842;-70
2022/05/31 09:37:58;;;;;;;7.27;5.00;;;14.10;99.90;;;;;;4964121;28;20480;-70
2022/05/31 09:40:47;;;;;;;5.93;4.90;;;14.00;99.90;;;;;;4975646;28;20511;-70
2022/05/31 09:43:21;;;;;;;10.73;5.50;;;14.00;99.90;;;;;;4975491;28;20528;-70
2022/05/31 09:46:06;;;;;;;8.03;5.20;;;14.00;99.90;;;;;;4975508;28;20421;-72
2022/05/31 09:48:31;;;;;;;8.23;5.30;;;14.00;99.90;;;;;;4973033;28;20445;-70
2022/05/31 09:51:10;;;;;;;12.27;6.10;;;14.00;99.90;;;;;;4969855;28;20429;-70
2022/05/31 09:59:09;;;;;;;7.63;6.33;;;13.90;99.90;;;;;;4975289;28;20479;-71
2022/05/31 10:01:43;;;;;;;9.87;8.07;;;13.90;99.90;;;;;;4974976;28;20440;-70
2022/05/31 10:04:21;;;;;;;12.90;8.57;;;13.80;99.90;;;;;;4975149;28;20508;-70
2022/05/31 10:07:01;;;;;;;10.07;6.60;;;13.80;99.90;;;;;;4974039;28;20525;-69
2022/05/31 10:09:39;;;;;;;9.27;7.47;;;13.80;99.90;;;;;;4975146;28;20429;-70
2022/05/31 10:12:13;;;;;;;12.33;7.30;;;13.80;99.90;;;;;;4974955;28;20955;-70
2022/05/31 10:14:45;;;;;;;8.37;6.37;;;13.80;99.90;;;;;;4974562;28;20568;-70
2022/05/31 10:17:37;;;;;;;8.50;7.23;;;13.80;99.90;;;;;;4974894;28;20539;-70
2022/05/31 10:20:15;;;;;;;10.93;6.60;;;13.80;99.90;;;;;;4974816;28;20420;-70
2022/05/31 10:22:57;;;;;;;11.50;5.90;;;13.80;99.90;;;;;;4974805;28;20432;-70
2022/05/31 10:25:44;;;;;;;8.53;6.00;;;13.90;99.90;;;;;;4974836;28;20488;-69
2022/05/31 10:28:29;;;;;;;6.03;4.73;;;14.00;99.90;;;;;;4974639;28;20772;-70
2022/05/31 10:31:22;;;;;;;7.50;5.27;;;14.10;99.90;;;;;;4974153;28;20475;-70
2022/05/31 10:33:56;;;;;;;7.57;6.10;;;14.20;99.90;;;;;;4964485;28;20533;-69
2022/05/31 10:36:27;;;;;;;8.97;6.20;;;14.10;99.90;;;;;;4961685;28;20461;-69
2022/05/31 10:38:53;;;;;;;6.70;5.47;;;14.20;99.90;;;;;;4963532;28;20571;-69
2022/05/31 10:41:31;;;;;;;7.17;5.47;;;14.30;99.90;;;;;;4944305;28;20433;-69
2022/05/31 10:44:06;;;;;;;14.17;6.47;;;14.30;99.90;;;;;;4945585;29;20489;-69
2022/05/31 10:46:35;;;;;;;9.97;5.60;;;14.30;99.90;;;;;;4944828;29;21017;-69
2022/05/31 10:49:03;;;;;;;6.20;4.30;;;14.30;99.90;;;;;;4946264;28;20461;-69
2022/05/31 10:51:56;;;;;;;10.77;6.17;;;14.30;99.90;;;;;;4944358;29;20426;-68
2022/05/31 10:54:46;;;;;;;8.27;5.20;;;14.30;99.90;;;;;;4943480;28;20430;-68
2022/05/31 10:57:39;;;;;;;6.43;4.90;;;14.50;99.90;;;;;;4944705;29;20485;-68
2022/05/31 11:00:28;;;;;;;10.10;5.40;;;14.60;99.90;;;;;;4955322;28;20473;-70
2022/05/31 11:03:07;;;;;;;6.17;4.60;;;14.70;99.90;;;;;;4959332;28;20437;-68
2022/05/31 11:05:47;;;;;;;10.73;5.50;;;14.60;99.90;;;;;;4960542;28;20426;-68
2022/05/31 11:11:30;;;;;;;6.03;5.43;;;14.90;99.90;;;;;;4960353;28;20586;-69
2022/05/31 11:14:14;;;;;;;9.53;5.60;;;15.10;99.90;;;;;;4961118;28;20434;-68
2022/05/31 11:17:07;;;;;;;6.80;5.60;;;15.20;99.90;;;;;;4960881;28;20465;-68
2022/05/31 11:19:48;;;;;;;5.47;4.87;;;15.40;99.90;;;;;;4960343;28;20880;-70
2022/05/31 11:22:26;;;;;;;6.20;5.23;;;15.70;99.90;;;;;;4960389;28;20889;-69
2022/05/31 11:25:22;;;;;;;7.23;5.80;;;15.90;99.90;;;;;;4961708;28;20436;-68
2022/05/31 11:28:01;;;;;;;6.60;4.37;;;15.90;99.90;;;;;;4963947;28;20491;-69
2022/05/31 11:30:38;;;;;;;6.30;4.97;;;16.00;99.90;;;;;;4963699;28;20465;-70
2022/05/31 11:33:17;;;;;;;6.50;4.20;;;16.30;99.90;;;;;;4961147;28;20847;-70
2022/05/31 11:36:25;;;;;;;6.50;4.83;;;16.40;99.90;;;;;;4961132;28;20516;-69
2022/05/31 11:39:16;;;;;;;7.20;4.27;;;16.60;99.90;;;;;;4961056;28;20446;-70
2022/05/31 11:42:09;;;;;;;6.37;4.03;;;16.80;99.90;;;;;;4960641;28;20430;-70
2022/05/31 11:45:02;;;;;;;8.83;4.70;;;17.00;99.90;;;;;;4963913;28;20794;-70
2022/05/31 11:47:46;;;;;;;4.70;4.30;;;17.10;99.90;;;;;;4962425;28;20445;-70
2022/05/31 11:50:27;;;;;;;8.50;5.60;;;17.40;99.90;;;;;;4963276;28;20433;-70
2022/05/31 11:53:11;;;;;;;6.33;4.90;;;17.50;99.90;;;;;;4963390;28;20437;-70
2022/05/31 11:55:49;;;;;;;8.07;5.10;;;17.40;99.90;;;;;;4963966;28;20882;-70
2022/05/31 11:58:35;;;;;;;9.60;5.50;;;17.40;99.90;;;;;;4962985;28;20910;-70
2022/05/31 12:01:22;;;;;;;8.10;5.37;;;17.30;99.90;;;;;;4959128;28;20417;-70
2022/05/31 12:04:03;;;;;;;4.70;4.20;;;17.50;99.90;;;;;;4963657;28;20433;-70
2022/05/31 12:06:29;;;;;;;5.10;4.00;;;17.50;99.90;;;;;;4962641;28;20426;-71
2022/05/31 12:09:19;;;;;;;7.37;5.20;;;17.60;99.90;;;;;;4964877;28;20417;-71
2022/05/31 12:11:55;;;;;;;4.60;4.10;;;17.70;99.90;;;;;;4972850;28;20193;-70
2022/05/31 12:14:23;;;;;;;5.37;4.20;;;17.70;99.90;;;;;;4973098;28;20421;-68
2022/05/31 12:16:50;;;;;;;4.53;3.80;;;17.70;99.90;;;;;;4961522;28;20476;-70
2022/05/31 12:19:31;;;;;;;5.53;4.43;;;17.90;99.90;;;;;;4954189;28;20863;-70
2022/05/31 12:22:07;;;;;;;5.33;4.13;;;17.90;99.90;;;;;;4953848;29;20542;-70
2022/05/31 12:24:43;;;;;;;7.93;4.13;;;17.90;99.90;;;;;;4953835;28;20457;-70
2022/05/31 12:27:20;;;;;;;6.10;3.53;;;17.80;99.90;;;;;;4953691;28;20422;-70
2022/05/31 12:30:00;;;;;;;4.30;3.87;;;18.00;99.90;;;;;;4953928;28;20512;-69
2022/05/31 12:32:39;;;;;;;5.67;4.00;;;18.30;99.90;;;;;;4953510;28;20988;-69
2022/05/31 12:35:09;;;;;;;5.67;3.90;;;18.30;99.90;;;;;;4953739;28;20421;-69
2022/05/31 12:38:06;;;;;;;7.63;4.37;;;18.40;99.90;;;;;;4953687;28;20527;-70
2022/05/31 12:40:32;;;;;;;4.20;3.80;;;18.40;99.90;;;;;;4953700;28;20465;-70
2022/05/31 12:42:59;;;;;;;3.93;3.50;;;18.40;99.90;;;;;;4953374;29;20489;-70
2022/05/31 12:45:36;;;;;;;3.80;3.40;;;18.40;99.90;;;;;;4953480;28;20208;-70
2022/05/31 12:48:21;;;;;;;4.67;3.90;;;18.40;99.90;;;;;;4953420;28;20434;-70
2022/05/31 12:50:55;;;;;;;4.97;4.10;;;18.30;99.90;;;;;;4953683;28;20517;-70
2022/05/31 12:53:41;;;;;;;4.93;3.90;;;18.20;99.90;;;;;;4963533;28;20427;-71
2022/05/31 12:56:28;;;;;;;4.93;3.30;;;18.50;99.90;;;;;;4972282;28;20426;-71
2022/05/31 12:58:53;;;;;;;4.63;3.70;;;18.50;99.90;;;;;;4972111;28;20441;-69
2022/05/31 13:01:22;;;;;;;5.50;4.23;;;18.70;99.90;;;;;;4972361;28;20488;-69
2022/05/31 13:03:51;;;;;;;4.00;3.57;;;18.70;99.90;;;;;;4972659;28;20174;-67
2022/05/31 13:06:34;;;;;;;5.70;4.17;;;18.80;99.90;;;;;;4972549;28;20433;-67
2022/05/31 13:09:04;;;;;;;7.77;4.43;;;18.80;99.90;;;;;;4972516;28;20932;-67
2022/05/31 13:20:13;;;;;;;3.83;3.10;;;18.50;99.90;;;;;;4976062;28;20864;-68
2022/05/31 13:22:44;;;;;;;4.67;3.77;;;18.60;98.40;;;;;;4975868;28;20441;-68
2022/05/31 13:25:25;;;;;;;5.20;3.60;;;18.80;99.90;;;;;;4975697;28;20416;-68
2022/05/31 13:27:57;;;;;;;3.90;3.30;;;18.90;99.90;;;;;;4976018;28;20433;-67
2022/05/31 13:30:25;;;;;;;4.80;3.13;;;19.10;98.70;;;;;;4975561;28;20424;-67
2022/05/31 13:32:51;;;;;;;6.80;3.47;;;19.10;99.90;;;;;;4975704;28;20448;-67
2022/05/31 13:35:24;;;;;;;6.10;3.77;;;19.30;98.50;;;;;;4975474;28;20437;-67
2022/05/31 13:38:04;;;;;;;4.53;3.60;;;19.40;97.60;;;;;;4975651;28;20748;-68
2022/05/31 13:40:37;;;;;;;3.43;3.13;;;19.20;96.70;;;;;;4975738;28;20452;-68
2022/05/31 13:43:06;;;;;;;5.80;3.77;;;19.20;98.40;;;;;;4975583;28;20436;-68
2022/05/31 13:45:33;;;;;;;4.37;3.53;;;19.30;98.10;;;;;;4974869;28;20480;-69
2022/05/31 13:48:12;;;;;;;3.47;3.17;;;19.30;96.30;;;;;;4975178;28;20429;-70
2022/05/31 13:50:52;;;;;;;6.03;3.00;;;19.40;95.40;;;;;;4975384;28;20433;-68
2022/05/31 13:53:18;;;;;;;4.13;2.87;;;19.30;97.00;;;;;;4966406;28;20438;-69
2022/05/31 13:55:44;;;;;;;4.53;2.63;;;19.50;98.40;;;;;;4956044;29;20428;-70
2022/05/31 13:58:13;;;;;;;4.13;2.77;;;19.70;90.80;;;;;;4955993;28;20688;-68
2022/05/31 14:00:45;;;;;;;3.80;2.47;;;19.80;82.40;;;;;;4955649;28;20179;-68
2022/05/31 14:03:40;;;;;;;4.73;2.70;;;20.00;84.30;;;;;;4955887;28;20489;-70
2022/05/31 14:06:14;;;;;;;4.90;2.17;;;20.00;83.90;;;;;;4954932;29;20434;-69
2022/05/31 14:08:55;;;;;;;3.63;3.17;;;20.20;85.50;;;;;;4955653;29;20521;-71
2022/05/31 14:11:27;;;;;;;3.50;3.20;;;20.20;85.80;;;;;;4955740;29;20429;-68
2022/05/31 14:13:58;;;;;;;2.93;2.30;;;19.90;79.60;;;;;;4955612;29;20474;-68
2022/05/31 14:16:42;;;;;;;2.87;2.63;;;19.70;82.60;;;;;;4955931;29;20811;-68
2022/05/31 14:19:24;;;;;;;6.50;3.43;;;19.90;86.80;;;;;;4955539;29;20438;-72
2022/05/31 14:21:53;;;;;;;3.27;2.67;;;19.90;82.00;;;;;;4955287;28;20534;-71
2022/05/31 14:24:24;;;;;;;2.47;2.27;;;19.90;81.60;;;;;;4954784;28;20446;-71
2022/05/31 14:26:53;;;;;;;7.47;2.97;;;19.80;81.00;;;;;;4955243;28;20438;-70
2022/05/31 14:29:26;;;;;;;2.80;2.23;;;19.70;81.90;;;;;;4955365;28;20430;-70
2022/05/31 14:32:12;;;;;;;6.23;2.27;;;19.60;79.10;;;;;;4955353;28;20977;-70
2022/05/31 14:34:43;;;;;;;4.40;3.00;;;19.50;84.70;;;;;;4954363;29;20442;-70
2022/05/31 14:37:13;;;;;;;3.60;2.77;;;19.40;84.90;;;;;;4955800;29;20993;-71
2022/05/31 14:39:51;;;;;;;4.10;2.90;;;19.30;84.50;;;;;;4956056;28;20505;-70
2022/05/31 14:42:24;;;;;;;9.33;3.17;;;19.30;83.30;;;;;;4955831;28;20852;-71
2022/05/31 14:44:52;;;;;;;2.60;2.40;;;19.30;82.80;;;;;;4955780;28;21017;-71
2022/05/31 14:47:20;;;;;;;4.83;2.97;;;19.20;85.50;;;;;;4956192;28;20481;-71
2022/05/31 14:50:06;;;;;;;3.70;2.40;;;19.20;85.00;;;;;;4955951;29;20513;-71
2022/05/31 14:52:47;;;;;;;5.33;3.27;;;19.10;86.00;;;;;;4957791;28;20434;-71
2022/05/31 14:55:22;;;;;;;3.33;2.13;;;19.10;88.30;;;;;;4975218;28;20432;-71
2022/05/31 15:00:50;;;;;;;6.63;3.17;;;18.90;90.10;;;;;;4974501;28;20512;-71
2022/05/31 15:03:34;;;;;;;3.17;2.87;;;18.90;88.10;;;;;;4975025;28;20433;-71
2022/05/31 15:06:09;;;;;;;4.57;2.43;;;18.90;90.70;;;;;;4974911;28;20430;-71
2022/05/31 15:08:39;;;;;;;10.13;2.87;;;18.90;90.10;;;;;;4974762;28;20896;-71
2022/05/31 15:19:28;;;;;;;7.03;4.40;;;19.40;90.60;;;;;;4974840;28;20986;-72
2022/05/31 15:21:54;;;;;;;4.00;2.30;;;19.50;90.80;;;;;;4974196;28;20421;-71
2022/05/31 15:24:31;;;;;;;3.20;2.60;;;19.40;87.30;;;;;;4974510;28;20261;-71
2022/05/31 15:26:58;;;;;;;3.80;3.20;;;19.40;82.60;;;;;;4974405;28;20177;-71
2022/05/31 15:29:24;;;;;;;4.40;2.50;;;19.30;82.30;;;;;;4974321;28;20433;-72
2022/05/31 15:31:50;;;;;;;2.87;2.10;;;19.00;82.40;;;;;;4974310;28;20502;-69
2022/05/31 15:34:16;;;;;;;2.13;1.93;;;19.00;80.90;;;;;;4957316;28;20537;-73
2022/05/31 15:36:44;;;;;;;3.37;2.43;;;18.90;81.70;;;;;;4955172;29;20725;-72
2022/05/31 15:39:13;;;;;;;2.57;2.37;;;18.80;83.10;;;;;;4955111;29;20182;-70
2022/05/31 15:41:40;;;;;;;2.93;2.33;;;18.50;83.30;;;;;;4955074;29;20442;-69
2022/05/31 15:44:07;;;;;;;6.50;2.40;;;18.50;85.50;;;;;;4954803;29;20802;-71
2022/05/31 15:46:37;;;;;;;2.33;2.13;;;18.50;86.20;;;;;;4953915;29;20840;-74
2022/05/31 15:49:05;;;;;;;2.57;2.30;;;18.50;85.50;;;;;;4972539;28;20432;-70
2022/05/31 15:51:34;;;;;;;3.40;2.60;;;18.40;86.40;;;;;;4973281;28;20437;-70
2022/05/31 15:54:23;;;;;;;3.97;3.57;;;18.40;89.00;;;;;;4960690;28;20452;-72
2022/05/31 15:56:50;;;;;;;2.30;2.10;;;18.40;88.60;;;;;;4953967;28;20486;-72
2022/05/31 15:59:30;;;;;;;3.03;2.00;;;18.40;84.00;;;;;;4953960;28;20422;-72
2022/05/31 16:01:56;;;;;;;2.93;2.47;;;18.30;84.00;;;;;;4954092;28;20430;-70
2022/05/31 16:04:22;;;;;;;3.30;2.57;;;18.10;84.00;;;;;;4953981;28;20929;-71
2022/05/31 16:06:49;;;;;;;2.00;1.60;;;18.10;84.00;;;;;;4954087;28;20257;-71
2022/05/31 16:09:15;;;;;;;4.63;2.00;;;18.00;84.50;;;;;;4953872;28;20559;-72
2022/05/31 16:11:41;;;;;;;2.53;1.83;;;17.90;83.60;;;;;;4953689;28;20422;-71
2022/05/31 16:14:13;;;;;;;3.93;2.07;;;17.80;83.40;;;;;;4953817;28;20434;-71
2022/05/31 16:16:39;;;;;;;6.10;2.30;;;17.80;88.20;;;;;;4953846;28;20453;-72
2022/05/31 16:19:05;;;;;;;7.23;2.33;;;17.70;89.10;;;;;;4953691;29;20529;-71
2022/05/31 16:21:31;;;;;;;5.67;2.27;;;17.70;90.20;;;;;;4953843;29;20213;-77
2022/05/31 16:23:56;;;;;;;4.50;2.20;;;17.60;89.00;;;;;;4953763;28;20210;-73
2022/05/31 16:26:22;;;;;;;2.93;2.30;;;17.70;90.60;;;;;;4953745;29;20462;-76
2022/05/31 16:28:48;;;;;;;2.20;1.90;;;17.60;91.00;;;;;;4953765;28;20189;-77
2022/05/31 16:31:14;;;;;;;3.90;2.10;;;17.60;91.10;;;;;;4953171;29;20466;-75
2022/05/31 16:33:39;;;;;;;2.60;2.03;;;17.70;92.10;;;;;;4953750;29;20179;-73
2022/05/31 16:36:20;;;;;;;4.50;2.27;;;17.80;92.40;;;;;;4953426;29;20190;-78
2022/05/31 16:41:29;;;;;;;2.03;1.80;;;18.10;90.40;;;;;;4953820;29;20533;-78
2022/05/31 16:43:56;;;;;;;2.97;2.07;;;18.10;90.00;;;;;;4953385;29;20513;-80
2022/05/31 16:46:24;;;;;;;2.90;2.27;;;18.20;86.60;;;;;;4955331;28;20186;-77
2022/05/31 16:48:51;;;;;;;2.80;2.00;;;18.20;88.10;;;;;;4957396;28;20476;-82
2022/05/31 16:51:28;;;;;;;3.30;3.00;;;18.30;91.20;;;;;;4957227;28;20489;-77
2022/05/31 16:53:56;;;;;;;2.83;2.20;;;18.30;91.10;;;;;;4957223;28;20430;-78
2022/05/31 16:56:22;;;;;;;1.97;1.73;;;18.40;91.80;;;;;;4956709;28;20528;-78
2022/05/31 16:58:47;;;;;;;3.70;2.03;;;18.50;91.00;;;;;;4956841;29;20459;-81
2022/05/31 17:01:13;;;;;;;5.10;2.05;;;18.50;87.40;;;;;;4956071;29;20481;-82
2022/05/31 17:03:38;;;;;;;2.03;1.70;;;18.60;90.00;;;;;;4957320;29;20224;-81
2022/05/31 17:06:05;;;;;;;2.20;1.80;;;18.80;89.50;;;;;;4956981;29;20175;-81
2022/05/31 17:16:43;;;;;;;3.07;2.20;;;18.90;83.60;;;;;;4957006;29;21007;-77
2022/05/31 17:19:09;;;;;;;3.17;2.03;;;18.80;86.60;;;;;;4956763;29;20434;-76
2022/05/31 17:21:37;;;;;;;3.40;1.83;;;18.90;82.80;;;;;;4956736;29;20247;-76
2022/05/31 17:24:03;;;;;;;4.70;2.33;;;18.80;81.80;;;;;;4956766;28;20178;-75
2022/05/31 17:26:29;;;;;;;4.40;2.07;;;18.70;83.90;;;;;;4956589;28;20962;-83
2022/05/31 17:28:57;;;;;;;8.13;1.80;;;18.70;85.60;;;;;;4956612;29;20517;-76
2022/05/31 17:31:23;;;;;;;2.40;1.77;;;18.60;87.60;;;;;;4956447;28;20245;-75
2022/05/31 17:33:50;;;;;;;2.00;1.80;;;18.70;87.40;;;;;;4956267;28;20813;-75
2022/05/31 17:36:19;;;;;;;2.40;2.20;;;18.60;86.70;;;;;;4956380;28;20469;-75
2022/05/31 17:38:55;;;;;;;2.50;2.30;;;18.50;86.90;;;;;;4956198;28;20485;-74
2022/05/31 17:41:28;;;;;;;3.20;2.30;;;18.60;88.00;;;;;;4956247;28;20427;-71
2022/05/31 17:43:56;;;;;;;2.30;1.90;;;18.70;88.00;;;;;;4956151;28;20438;-70
2022/05/31 17:46:24;;;;;;;2.50;1.60;;;18.60;87.80;;;;;;4955925;28;20480;-70
2022/05/31 17:48:51;;;;;;;1.53;1.43;;;18.60;84.80;;;;;;4956206;28;20434;-74
2022/05/31 17:51:18;;;;;;;4.07;1.90;;;18.60;89.00;;;;;;4956114;28;20434;-74
2022/05/31 17:53:43;;;;;;;3.53;1.97;;;18.60;85.90;;;;;;4955951;28;20444;-71
2022/05/31 17:56:12;;;;;;;2.60;1.83;;;18.50;88.90;;;;;;4956007;29;20418;-71
2022/05/31 17:58:39;;;;;;;1.70;1.57;;;18.50;90.10;;;;;;4955362;28;20190;-71
2022/05/31 18:01:05;;;;;;;2.17;1.83;;;18.40;87.00;;;;;;4955833;28;20441;-71
2022/05/31 18:03:31;;;;;;;1.80;1.60;;;18.40;86.70;;;;;;4955887;28;20446;-78
2022/05/31 18:05:58;;;;;;;3.50;2.00;;;18.30;90.70;;;;;;4955933;28;20477;-79
2022/05/31 18:08:25;;;;;;;2.77;1.80;;;18.20;92.30;;;;;;4955831;28;20196;-73
2022/05/31 18:10:51;;;;;;;2.63;2.00;;;18.20;91.90;;;;;;4955589;28;20441;-74
2022/05/31 18:13:18;;;;;;;3.00;2.10;;;18.20;92.00;;;;;;4955783;28;20436;-80
2022/05/31 18:15:44;;;;;;;6.00;2.00;;;18.20;91.30;;;;;;4955645;28;20241;-75
2022/05/31 18:18:09;;;;;;;1.80;1.50;;;18.20;91.30;;;;;;4955657;28;20482;-75
2022/05/31 18:20:38;;;;;;;2.30;2.00;;;18.20;93.70;;;;;;4955721;29;20182;-74
2022/05/31 18:23:05;;;;;;;2.50;2.03;;;18.10;90.30;;;;;;4955427;28;20190;-76
2022/05/31 18:25:31;;;;;;;2.70;2.10;;;18.00;87.50;;;;;;4955667;28;20426;-71
2022/05/31 18:30:43;;;;;;;3.33;1.50;;;17.90;86.90;;;;;;4955262;29;20532;-71
2022/05/31 18:33:09;;;;;;;2.43;2.10;;;17.90;90.20;;;;;;4955295;28;20522;-70
2022/05/31 18:35:35;;;;;;;2.63;2.43;;;17.90;92.40;;;;;;4955364;29;20913;-73